Time;durP1;ratioP1;P1;durP2;ratioP2;P2;SDS_P1;SDS_P2;PMS_P1;PMS_P2;Temp;Humidity;BMP_temperature;BMP_pressure;BME280_temperature;BME280_humidity;BME280_pressure;Samples;Min_cycle;Max_cycle;Signal;HPM_P1;HPM_P2
2023/10/25 00:00:36;;;;;;;15.73;5.47;;;9.50;99.90;;;;;;6278885;22;20029;-85
2023/10/25 00:03:01;;;;;;;17.75;6.25;;;8.30;99.90;;;;;;6279631;22;20047;-85
2023/10/25 00:05:32;;;;;;;15.40;6.10;;;8.80;99.90;;;;;;6279344;22;20419;-85
2023/10/25 00:07:58;;;;;;;13.68;6.30;;;9.70;99.90;;;;;;6279071;22;20335;-85
2023/10/25 00:10:24;;;;;;;13.07;6.18;;;8.80;99.90;;;;;;6279112;22;20022;-85
2023/10/25 00:12:49;;;;;;;16.50;6.30;;;9.50;99.90;;;;;;6279611;22;20015;-85
2023/10/25 00:15:15;;;;;;;14.02;6.25;;;8.80;99.90;;;;;;6278428;22;20046;-85
2023/10/25 00:17:41;;;;;;;15.57;6.05;;;9.40;99.90;;;;;;6279633;22;20141;-85
2023/10/25 00:20:07;;;;;;;15.50;5.87;;;8.80;99.90;;;;;;6280052;22;20019;-85
2023/10/25 00:22:33;;;;;;;12.68;5.85;;;8.70;99.90;;;;;;6278519;22;20012;-85
2023/10/25 00:24:58;;;;;;;14.45;6.20;;;8.80;99.90;;;;;;6306694;22;20015;-85
2023/10/25 00:27:24;;;;;;;14.15;5.85;;;8.70;99.90;;;;;;6305186;22;20478;-85
2023/10/25 00:29:49;;;;;;;14.27;6.05;;;8.70;99.90;;;;;;6279845;22;20008;-85
2023/10/25 00:32:15;;;;;;;17.40;6.45;;;8.70;99.90;;;;;;6279396;22;20031;-85
2023/10/25 00:34:41;;;;;;;14.95;6.53;;;8.70;99.90;;;;;;6278421;22;20024;-85
2023/10/25 00:37:07;;;;;;;13.75;5.85;;;8.70;99.90;;;;;;6279068;22;20065;-85
2023/10/25 00:39:33;;;;;;;13.90;6.18;;;8.70;99.90;;;;;;6307651;22;20011;-85
2023/10/25 00:41:58;;;;;;;12.73;5.93;;;8.60;99.90;;;;;;6278500;22;20019;-85
2023/10/25 00:44:24;;;;;;;14.00;6.15;;;9.40;99.90;;;;;;6279560;22;20435;-85
2023/10/25 00:46:50;;;;;;;15.63;5.90;;;9.10;99.90;;;;;;6308529;22;20377;-85
2023/10/25 00:49:17;;;;;;;17.08;5.97;;;8.50;99.90;;;;;;6280085;22;20054;-85
2023/10/25 00:51:42;;;;;;;14.63;6.35;;;8.50;99.90;;;;;;6308526;22;20015;-85
2023/10/25 00:54:09;;;;;;;14.50;5.78;;;8.50;99.90;;;;;;6280569;22;20352;-85
2023/10/25 00:56:35;;;;;;;15.13;6.65;;;8.50;99.90;;;;;;6279955;22;20503;-85
2023/10/25 00:59:01;;;;;;;14.73;5.72;;;8.50;99.90;;;;;;6281410;22;20047;-85
2023/10/25 01:01:28;;;;;;;14.85;5.70;;;8.50;99.90;;;;;;6280776;22;20011;-85
2023/10/25 01:03:54;;;;;;;12.55;5.40;;;8.60;99.90;;;;;;6307327;22;20007;-85
2023/10/25 01:06:21;;;;;;;14.47;5.83;;;9.20;99.90;;;;;;6280572;22;20094;-85
2023/10/25 01:08:47;;;;;;;15.57;6.05;;;8.50;99.90;;;;;;6281293;22;20015;-88
2023/10/25 01:11:13;;;;;;;12.80;5.68;;;9.70;99.90;;;;;;6279761;22;20019;-87
2023/10/25 01:13:38;;;;;;;12.97;5.77;;;8.50;99.90;;;;;;6280819;22;20015;-85
2023/10/25 01:16:04;;;;;;;13.02;5.38;;;8.50;99.90;;;;;;6280865;22;20027;-85
2023/10/25 01:18:31;;;;;;;13.40;5.65;;;8.50;99.90;;;;;;6279886;22;20057;-85
2023/10/25 01:20:56;;;;;;;14.15;5.50;;;8.40;99.90;;;;;;6310480;22;20023;-86
2023/10/25 01:23:22;;;;;;;14.45;5.88;;;8.40;99.90;;;;;;6282279;22;20374;-85
2023/10/25 01:25:48;;;;;;;14.82;5.75;;;8.40;99.90;;;;;;6279668;22;20435;-85
2023/10/25 01:28:13;;;;;;;15.13;5.78;;;8.40;99.90;;;;;;6280298;22;20019;-85
2023/10/25 01:30:40;;;;;;;15.90;5.40;;;9.40;99.90;;;;;;6280185;22;20008;-85
2023/10/25 01:33:06;;;;;;;13.63;5.90;;;8.40;99.90;;;;;;6281045;22;20069;-85
2023/10/25 01:35:33;;;;;;;14.97;5.80;;;8.30;99.90;;;;;;6279858;22;20019;-85
2023/10/25 01:37:59;;;;;;;12.35;5.18;;;9.30;99.90;;;;;;6279667;22;20011;-85
2023/10/25 01:40:25;;;;;;;14.52;5.70;;;8.50;99.90;;;;;;6280234;22;20450;-85
2023/10/25 01:42:56;;;;;;;14.30;5.53;;;8.30;99.90;;;;;;6280448;22;20041;-85
2023/10/25 01:45:27;;;;;;;17.10;6.30;;;8.20;99.90;;;;;;6279169;22;20015;-85
2023/10/25 01:47:52;;;;;;;14.55;6.57;;;8.20;99.90;;;;;;6280456;22;20365;-85
2023/10/25 01:50:19;;;;;;;15.63;5.77;;;8.20;99.90;;;;;;6280350;22;20119;-85
2023/10/25 01:52:44;;;;;;;15.05;6.55;;;8.10;99.90;;;;;;6279497;22;20015;-85
2023/10/25 01:55:10;;;;;;;16.50;6.07;;;8.10;99.90;;;;;;6280517;22;20115;-85
2023/10/25 01:57:36;;;;;;;13.38;6.20;;;8.10;99.90;;;;;;6280256;22;20026;-85
2023/10/25 02:00:03;;;;;;;14.43;6.40;;;8.00;99.90;;;;;;6306969;22;20018;-85
2023/10/25 02:02:29;;;;;;;12.87;5.73;;;8.50;99.90;;;;;;6308385;22;20015;-85
2023/10/25 02:04:55;;;;;;;17.65;6.40;;;8.00;99.90;;;;;;6280277;22;20011;-85
2023/10/25 02:07:20;;;;;;;17.23;6.33;;;8.00;99.90;;;;;;6279132;22;20022;-85
2023/10/25 02:09:46;;;;;;;15.75;6.28;;;7.90;99.90;;;;;;6308252;22;20389;-85
2023/10/25 02:12:12;;;;;;;14.98;6.68;;;7.90;99.90;;;;;;6279827;22;20010;-85
2023/10/25 02:14:37;;;;;;;16.15;7.10;;;7.90;99.90;;;;;;6279174;22;20439;-85
2023/10/25 02:17:03;;;;;;;16.88;7.18;;;7.90;99.90;;;;;;6280569;22;20019;-85
2023/10/25 02:19:29;;;;;;;13.77;6.40;;;7.90;99.90;;;;;;6279865;22;20367;-85
2023/10/25 02:21:54;;;;;;;17.10;6.57;;;7.90;99.90;;;;;;6279508;22;20390;-87
2023/10/25 02:24:20;;;;;;;13.70;6.97;;;8.10;99.90;;;;;;6279818;22;20022;-85
2023/10/25 02:26:46;;;;;;;17.98;7.22;;;7.90;99.90;;;;;;6279564;22;20023;-84
2023/10/25 02:29:11;;;;;;;17.67;7.47;;;7.90;99.90;;;;;;6279332;22;20022;-85
2023/10/25 02:31:37;;;;;;;15.57;7.20;;;7.90;99.90;;;;;;6280506;22;20020;-85
2023/10/25 02:34:03;;;;;;;16.40;7.43;;;7.90;99.90;;;;;;6280003;22;20336;-85
2023/10/25 02:36:33;;;;;;;17.70;7.72;;;8.50;99.90;;;;;;6280644;22;20066;-85
2023/10/25 02:38:59;;;;;;;16.10;7.53;;;7.90;99.90;;;;;;6280428;22;20015;-85
2023/10/25 02:41:25;;;;;;;15.00;7.30;;;7.90;99.90;;;;;;6306005;22;20030;-85
2023/10/25 02:43:56;;;;;;;14.67;7.50;;;8.80;99.90;;;;;;6280022;22;20029;-85
2023/10/25 02:46:22;;;;;;;16.63;8.07;;;8.00;99.90;;;;;;6279253;22;20015;-85
2023/10/25 02:48:50;;;;;;;17.60;8.00;;;8.00;99.90;;;;;;6306565;22;20108;-85
2023/10/25 02:51:16;;;;;;;18.90;9.30;;;8.00;99.90;;;;;;6279629;22;20022;-85
2023/10/25 02:53:41;;;;;;;17.53;7.77;;;8.00;99.90;;;;;;6280504;22;20043;-85
2023/10/25 02:56:07;;;;;;;16.33;7.80;;;8.00;99.90;;;;;;6279395;22;20023;-85
2023/10/25 02:58:34;;;;;;;15.93;8.02;;;7.90;99.90;;;;;;6279165;22;20090;-85
2023/10/25 03:01:00;;;;;;;19.38;7.95;;;7.90;99.90;;;;;;6279673;22;20030;-85
2023/10/25 03:03:30;;;;;;;16.90;8.15;;;7.90;99.90;;;;;;6278431;22;20023;-85
2023/10/25 03:05:56;;;;;;;18.83;7.57;;;7.90;99.90;;;;;;6280559;22;20052;-85
2023/10/25 03:08:22;;;;;;;18.90;7.63;;;8.00;99.90;;;;;;6278777;22;20019;-85
2023/10/25 03:10:48;;;;;;;18.88;8.13;;;7.90;99.90;;;;;;6278685;22;20015;-85
2023/10/25 03:13:14;;;;;;;15.73;7.60;;;8.60;99.90;;;;;;6278954;22;20343;-85
2023/10/25 03:15:40;;;;;;;18.20;7.80;;;7.90;99.90;;;;;;6279189;22;20019;-85
2023/10/25 03:18:06;;;;;;;16.20;8.00;;;7.90;99.90;;;;;;6278648;22;20379;-85
2023/10/25 03:20:32;;;;;;;16.77;7.40;;;8.80;99.90;;;;;;6279025;22;20056;-85
2023/10/25 03:22:58;;;;;;;15.57;7.57;;;7.90;99.90;;;;;;6279555;22;20015;-85
2023/10/25 03:25:24;;;;;;;17.73;7.43;;;8.90;99.90;;;;;;6279051;22;20038;-85
2023/10/25 03:27:49;;;;;;;17.17;7.53;;;7.80;99.90;;;;;;6279517;22;20043;-85
2023/10/25 03:30:16;;;;;;;14.30;7.60;;;7.80;99.90;;;;;;6278365;22;20019;-84
2023/10/25 03:32:41;;;;;;;17.08;7.28;;;7.80;99.90;;;;;;6282048;22;20019;-85
2023/10/25 03:35:07;;;;;;;16.20;7.33;;;7.70;99.90;;;;;;6279798;22;20030;-85
2023/10/25 03:37:34;;;;;;;15.27;7.77;;;7.70;99.90;;;;;;6305553;22;20019;-85
2023/10/25 03:39:59;;;;;;;16.37;7.33;;;7.70;99.90;;;;;;6308173;22;20061;-85
2023/10/25 03:42:25;;;;;;;17.27;7.43;;;7.60;99.90;;;;;;6279044;22;20015;-86
2023/10/25 03:44:51;;;;;;;17.53;7.30;;;7.70;99.90;;;;;;6305969;22;20019;-85
2023/10/25 03:47:16;;;;;;;17.30;7.83;;;8.70;99.90;;;;;;6306306;22;20026;-85
2023/10/25 03:49:42;;;;;;;18.00;7.77;;;8.60;99.90;;;;;;6279666;22;20015;-85
2023/10/25 03:52:07;;;;;;;16.27;7.30;;;7.60;99.90;;;;;;6279191;22;20015;-85
2023/10/25 03:54:38;;;;;;;14.37;7.37;;;7.60;99.90;;;;;;6279098;22;20451;-85
2023/10/25 03:57:04;;;;;;;17.50;7.03;;;7.50;99.90;;;;;;6306757;22;20347;-85
2023/10/25 03:59:29;;;;;;;14.47;7.50;;;7.50;99.90;;;;;;6278245;22;20022;-85
2023/10/25 04:01:55;;;;;;;16.30;7.65;;;7.50;99.90;;;;;;6306456;22;20022;-85
2023/10/25 04:04:21;;;;;;;17.90;7.57;;;7.40;99.90;;;;;;6305798;22;20512;-85
2023/10/25 04:06:47;;;;;;;18.00;7.20;;;7.40;99.90;;;;;;6277700;22;20098;-85
2023/10/25 04:09:12;;;;;;;16.60;8.00;;;7.40;99.90;;;;;;6278707;22;20073;-84
2023/10/25 04:11:38;;;;;;;16.10;8.50;;;7.30;99.90;;;;;;6279006;22;20079;-85
2023/10/25 04:14:03;;;;;;;17.53;8.67;;;7.30;99.90;;;;;;6278487;22;20474;-85
2023/10/25 04:16:29;;;;;;;19.00;9.63;;;7.20;99.90;;;;;;6279159;22;20023;-85
2023/10/25 04:18:54;;;;;;;18.80;8.97;;;7.20;99.90;;;;;;6279742;22;20019;-85
2023/10/25 04:21:20;;;;;;;19.13;9.83;;;8.00;99.90;;;;;;6280216;22;20094;-85
2023/10/25 04:23:46;;;;;;;24.47;9.30;;;7.20;99.90;;;;;;6308798;22;20046;-85
2023/10/25 04:26:13;;;;;;;21.40;9.47;;;7.10;99.90;;;;;;6280829;22;20381;-85
2023/10/25 04:28:41;;;;;;;20.73;9.80;;;7.10;99.90;;;;;;6307873;22;20026;-85
2023/10/25 04:31:07;;;;;;;21.73;9.97;;;7.00;99.90;;;;;;6309021;22;20026;-85
2023/10/25 04:33:33;;;;;;;22.27;10.68;;;8.10;99.90;;;;;;6280054;22;20435;-85
2023/10/25 04:35:59;;;;;;;19.90;9.90;;;7.60;99.90;;;;;;6281297;22;20061;-85
2023/10/25 04:38:25;;;;;;;24.37;10.23;;;8.40;99.90;;;;;;6280849;22;20317;-85
2023/10/25 04:40:52;;;;;;;18.63;9.43;;;7.00;99.90;;;;;;6279993;22;20014;-85
2023/10/25 04:43:17;;;;;;;26.07;10.53;;;6.90;99.90;;;;;;6307892;22;20020;-85
2023/10/25 04:45:43;;;;;;;22.97;10.50;;;6.90;99.90;;;;;;6308010;22;20036;-85
2023/10/25 04:48:09;;;;;;;21.63;9.93;;;6.90;99.90;;;;;;6307285;22;20470;-85
2023/10/25 04:50:37;;;;;;;21.97;10.33;;;6.80;99.90;;;;;;6308692;22;20026;-85
2023/10/25 04:53:03;;;;;;;21.17;9.63;;;6.80;99.90;;;;;;6281218;22;20084;-85
2023/10/25 04:55:36;;;;;;;23.33;10.00;;;6.70;99.90;;;;;;6279525;22;20030;-85
2023/10/25 04:58:03;;;;;;;20.03;8.67;;;6.70;99.90;;;;;;6308407;22;20026;-85
2023/10/25 05:00:28;;;;;;;18.77;9.03;;;6.60;99.90;;;;;;6280595;22;20022;-85
2023/10/25 05:02:55;;;;;;;17.40;8.53;;;6.60;99.90;;;;;;6280149;22;20419;-85
2023/10/25 05:05:21;;;;;;;19.00;8.60;;;6.60;99.90;;;;;;6280774;22;20102;-85
2023/10/25 05:07:47;;;;;;;17.23;8.30;;;6.50;99.90;;;;;;6280912;22;20034;-84
2023/10/25 05:10:13;;;;;;;19.80;8.87;;;6.50;99.90;;;;;;6307104;22;20162;-85
2023/10/25 05:12:44;;;;;;;19.37;8.90;;;6.50;99.90;;;;;;6308318;22;20446;-85
2023/10/25 05:15:11;;;;;;;20.03;8.90;;;6.50;99.90;;;;;;6280179;22;20023;-84
2023/10/25 05:17:41;;;;;;;19.10;8.60;;;6.40;99.90;;;;;;6307397;22;20022;-84
2023/10/25 05:20:07;;;;;;;17.60;7.90;;;7.30;99.90;;;;;;6308457;22;20370;-85
2023/10/25 05:22:35;;;;;;;16.90;8.00;;;6.40;99.90;;;;;;6280554;22;20427;-85
2023/10/25 05:25:05;;;;;;;21.20;9.20;;;6.30;99.90;;;;;;6279966;22;20018;-85
2023/10/25 05:27:35;;;;;;;21.43;9.47;;;6.30;99.90;;;;;;6280337;22;20347;-84
2023/10/25 05:30:07;;;;;;;21.00;9.73;;;6.30;99.90;;;;;;6306956;22;20019;-85
2023/10/25 05:32:35;;;;;;;21.77;9.83;;;6.30;99.90;;;;;;6279420;22;20444;-85
2023/10/25 05:35:03;;;;;;;21.50;10.27;;;6.40;99.90;;;;;;6281325;22;20019;-85
2023/10/25 05:37:29;;;;;;;24.33;10.10;;;6.40;99.90;;;;;;6279890;22;20015;-85
2023/10/25 05:39:55;;;;;;;22.47;10.17;;;7.40;99.90;;;;;;6280533;22;20044;-84
2023/10/25 05:42:23;;;;;;;26.10;10.60;;;6.30;99.90;;;;;;6307748;22;20068;-85
2023/10/25 05:44:54;;;;;;;27.40;10.63;;;6.40;99.90;;;;;;6279312;22;20373;-85
2023/10/25 05:47:23;;;;;;;19.50;9.27;;;6.40;99.90;;;;;;6280003;22;20019;-84
2023/10/25 05:49:50;;;;;;;19.10;9.87;;;6.40;99.90;;;;;;6280284;22;20014;-83
2023/10/25 05:52:16;;;;;;;23.40;10.10;;;6.40;99.90;;;;;;6306722;22;20019;-85
2023/10/25 05:54:42;;;;;;;24.20;11.20;;;6.50;99.90;;;;;;6281107;22;20046;-86
2023/10/25 05:57:08;;;;;;;20.97;10.33;;;6.50;99.90;;;;;;6280591;22;20015;-87
2023/10/25 05:59:46;;;;;;;24.73;10.87;;;6.60;99.90;;;;;;6306975;22;20363;-85
2023/10/25 06:02:22;;;;;;;24.60;10.27;;;8.00;99.90;;;;;;6286394;22;20015;-87
2023/10/25 06:04:48;;;;;;;24.08;10.68;;;6.60;99.90;;;;;;6280485;22;20068;-86
2023/10/25 06:07:15;;;;;;;24.37;11.07;;;6.50;99.90;;;;;;6279739;22;20443;-87
2023/10/25 06:09:41;;;;;;;21.67;10.27;;;6.50;99.90;;;;;;6280518;22;20019;-88
2023/10/25 06:12:08;;;;;;;24.87;10.20;;;6.50;99.90;;;;;;6280140;22;20011;-91
2023/10/25 06:14:34;;;;;;;24.13;11.03;;;6.60;99.90;;;;;;6280727;22;20011;-90
2023/10/25 06:17:00;;;;;;;22.80;10.37;;;7.30;99.90;;;;;;6277487;22;20030;-86
2023/10/25 06:19:26;;;;;;;21.70;10.20;;;6.60;99.90;;;;;;6278619;22;20084;-85
2023/10/25 06:21:55;;;;;;;21.93;10.50;;;6.60;99.90;;;;;;6279823;22;20007;-88
2023/10/25 06:24:21;;;;;;;21.63;10.63;;;7.80;99.90;;;;;;6280176;22;20015;-86
2023/10/25 06:26:47;;;;;;;23.37;11.03;;;6.60;99.90;;;;;;6279355;22;20027;-85
2023/10/25 06:29:13;;;;;;;26.83;11.37;;;7.70;99.90;;;;;;6279864;22;20316;-84
2023/10/25 06:31:39;;;;;;;24.20;10.97;;;7.40;99.90;;;;;;6279686;22;20086;-85
2023/10/25 06:34:04;;;;;;;24.57;11.13;;;7.60;99.90;;;;;;6278667;22;20099;-86
2023/10/25 06:36:34;;;;;;;23.97;11.50;;;6.70;99.90;;;;;;6279465;22;20046;-85
2023/10/25 06:39:04;;;;;;;27.13;12.03;;;6.70;99.90;;;;;;6279945;22;20022;-86
2023/10/25 06:41:31;;;;;;;25.53;12.53;;;6.80;99.90;;;;;;6278240;22;20065;-85
2023/10/25 06:43:57;;;;;;;26.43;13.17;;;6.80;99.90;;;;;;6280237;22;20042;-85
2023/10/25 06:46:23;;;;;;;25.50;12.57;;;6.80;99.90;;;;;;6279117;22;20026;-86
2023/10/25 06:48:49;;;;;;;26.50;13.53;;;6.80;99.90;;;;;;6278707;22;20090;-86
2023/10/25 06:51:15;;;;;;;28.30;14.13;;;6.80;99.90;;;;;;6306390;22;20015;-86
2023/10/25 06:53:41;;;;;;;30.00;14.57;;;6.80;99.90;;;;;;6306868;22;20347;-85
2023/10/25 06:56:07;;;;;;;27.67;14.27;;;6.80;99.90;;;;;;6278663;22;20573;-85
2023/10/25 06:58:33;;;;;;;31.50;14.90;;;6.80;99.90;;;;;;6279042;22;20026;-86
2023/10/25 07:01:01;;;;;;;29.10;14.93;;;6.80;99.90;;;;;;6279081;22;20090;-88
2023/10/25 07:03:35;;;;;;;34.27;16.53;;;7.90;99.90;;;;;;6277248;22;20090;-88
2023/10/25 07:06:03;;;;;;;31.20;14.20;;;6.70;99.90;;;;;;6279900;22;20011;-88
2023/10/25 07:08:30;;;;;;;31.73;15.37;;;6.80;99.90;;;;;;6277614;22;20051;-86
2023/10/25 07:10:56;;;;;;;29.80;16.40;;;6.80;99.90;;;;;;6306728;22;20068;-86
2023/10/25 07:13:24;;;;;;;33.73;15.57;;;6.80;99.90;;;;;;6307176;22;20011;-87
2023/10/25 07:15:50;;;;;;;29.60;16.33;;;6.90;99.90;;;;;;6278610;22;20482;-85
2023/10/25 07:18:16;;;;;;;29.27;15.43;;;6.90;99.90;;;;;;6306719;22;20042;-86
2023/10/25 07:20:41;;;;;;;31.27;15.87;;;6.90;99.90;;;;;;6305961;22;20087;-84
2023/10/25 07:23:08;;;;;;;27.47;16.43;;;8.30;99.90;;;;;;6278608;22;20317;-85
2023/10/25 07:25:34;;;;;;;32.50;17.60;;;7.10;99.90;;;;;;6279143;22;20081;-85
2023/10/25 07:28:00;;;;;;;31.67;15.73;;;7.10;99.90;;;;;;6279053;22;20065;-86
2023/10/25 07:30:26;;;;;;;30.10;16.10;;;7.20;99.90;;;;;;6276238;22;20439;-86
2023/10/25 07:32:51;;;;;;;30.13;16.70;;;7.20;99.90;;;;;;6279513;22;20022;-87
2023/10/25 07:35:17;;;;;;;27.53;15.33;;;7.90;99.90;;;;;;6280071;22;20439;-88
2023/10/25 07:37:42;;;;;;;27.73;15.20;;;7.30;99.90;;;;;;6279735;22;20011;-87
2023/10/25 07:40:09;;;;;;;27.87;13.97;;;8.80;99.90;;;;;;6279678;22;20374;-87
2023/10/25 07:42:34;;;;;;;23.70;14.40;;;7.40;99.90;;;;;;6280249;22;20026;-86
2023/10/25 07:45:00;;;;;;;30.17;14.23;;;8.20;99.90;;;;;;6278772;22;20023;-86
2023/10/25 07:47:26;;;;;;;28.37;14.40;;;7.90;99.90;;;;;;6278851;22;20022;-86
2023/10/25 07:49:51;;;;;;;27.43;14.03;;;8.40;99.90;;;;;;6280333;22;20023;-87
2023/10/25 07:52:18;;;;;;;26.37;13.50;;;8.40;99.90;;;;;;6277897;22;20022;-87
2023/10/25 07:54:44;;;;;;;25.93;14.20;;;7.90;99.90;;;;;;6280781;22;20030;-86
2023/10/25 07:57:10;;;;;;;26.27;13.20;;;9.00;99.90;;;;;;6308944;22;20339;-86
2023/10/25 07:59:36;;;;;;;25.23;13.80;;;9.20;99.90;;;;;;6280875;22;20109;-87
2023/10/25 08:02:02;;;;;;;26.27;13.67;;;8.50;99.90;;;;;;6281734;22;20050;-87
2023/10/25 08:04:28;;;;;;;25.83;14.43;;;7.80;99.90;;;;;;6280201;22;20328;-86
2023/10/25 08:06:53;;;;;;;25.37;13.50;;;8.60;99.90;;;;;;6282648;22;20071;-86
2023/10/25 08:09:19;;;;;;;27.47;13.47;;;7.70;99.90;;;;;;6281118;22;20348;-86
2023/10/25 08:11:48;;;;;;;25.17;13.20;;;9.00;99.90;;;;;;6280201;22;20015;-86
2023/10/25 08:14:14;;;;;;;21.83;12.57;;;7.40;99.90;;;;;;6282060;22;20016;-86
2023/10/25 08:16:40;;;;;;;24.67;13.13;;;8.90;99.90;;;;;;6281753;22;20312;-86
2023/10/25 08:19:07;;;;;;;22.63;13.20;;;9.40;99.90;;;;;;6280564;22;20443;-86
2023/10/25 08:21:36;;;;;;;22.70;12.40;;;9.70;99.90;;;;;;6280753;22;20024;-86
2023/10/25 08:24:05;;;;;;;23.10;12.73;;;9.00;99.90;;;;;;6281032;22;20077;-86
2023/10/25 08:26:36;;;;;;;24.10;12.40;;;8.30;99.90;;;;;;6280135;22;20022;-86
2023/10/25 08:29:02;;;;;;;20.58;11.15;;;8.50;99.90;;;;;;6281142;22;20065;-86
2023/10/25 08:31:28;;;;;;;23.55;11.95;;;10.00;99.90;;;;;;6281409;22;20535;-86
2023/10/25 08:33:54;;;;;;;22.37;11.93;;;9.10;99.90;;;;;;6280680;22;20336;-86
2023/10/25 08:36:19;;;;;;;21.47;12.13;;;9.70;99.90;;;;;;6280423;22;20021;-86
2023/10/25 08:38:45;;;;;;;21.93;12.03;;;9.80;99.90;;;;;;6281613;22;20011;-86
2023/10/25 08:41:11;;;;;;;21.30;10.80;;;8.70;99.90;;;;;;6279889;22;20018;-86
2023/10/25 08:43:39;;;;;;;19.98;11.27;;;10.10;99.90;;;;;;6308358;22;20108;-86
2023/10/25 08:46:05;;;;;;;20.98;11.52;;;8.90;99.90;;;;;;6308530;22;20012;-86
2023/10/25 08:48:32;;;;;;;19.48;10.48;;;9.70;99.90;;;;;;6280034;22;20094;-87
2023/10/25 08:51:01;;;;;;;19.83;10.17;;;8.80;99.90;;;;;;6280961;22;20011;-87
2023/10/25 08:53:28;;;;;;;18.30;9.60;;;10.50;99.90;;;;;;6281320;22;20022;-87
2023/10/25 08:56:28;;;;;;;19.93;9.80;;;10.30;99.90;;;;;;6279840;22;20335;-86
2023/10/25 08:58:58;;;;;;;21.00;9.50;;;9.30;99.90;;;;;;6282346;22;20042;-87
2023/10/25 09:01:24;;;;;;;16.67;9.03;;;10.50;99.90;;;;;;6280037;22;20454;-87
2023/10/25 09:03:50;;;;;;;15.47;9.10;;;10.60;99.90;;;;;;6282699;22;20090;-86
2023/10/25 09:06:23;;;;;;;14.90;8.40;;;9.50;99.90;;;;;;6282284;22;20066;-86
2023/10/25 09:08:59;;;;;;;17.35;8.77;;;10.20;99.90;;;;;;6281915;22;20039;-85
2023/10/25 09:11:24;;;;;;;17.80;8.48;;;10.60;99.90;;;;;;6308011;22;20030;-86
2023/10/25 09:13:56;;;;;;;17.23;8.73;;;9.90;99.90;;;;;;6280441;22;20016;-87
2023/10/25 09:16:25;;;;;;;16.47;8.73;;;11.40;99.90;;;;;;6279855;22;20094;-86
2023/10/25 09:18:51;;;;;;;14.73;7.88;;;11.10;99.90;;;;;;6280896;22;20347;-86
2023/10/25 09:21:26;;;;;;;15.07;7.63;;;10.00;99.90;;;;;;6280453;22;20015;-86
2023/10/25 09:24:07;;;;;;;14.93;7.00;;;10.80;99.90;;;;;;6279867;22;20026;-87
2023/10/25 09:26:39;;;;;;;14.90;7.30;;;10.50;99.90;;;;;;6280445;22;20385;-87
2023/10/25 09:29:05;;;;;;;14.40;6.40;;;12.10;99.90;;;;;;6279657;22;20049;-87
2023/10/25 09:31:31;;;;;;;12.57;6.38;;;12.10;99.90;;;;;;6280473;22;20022;-86
2023/10/25 09:33:58;;;;;;;14.32;6.25;;;12.30;99.90;;;;;;6280319;22;20025;-87
2023/10/25 09:36:25;;;;;;;13.23;6.93;;;11.80;99.90;;;;;;6278992;22;20115;-87
2023/10/25 09:38:53;;;;;;;14.65;6.25;;;12.30;99.90;;;;;;6283708;22;20844;-87
2023/10/25 09:41:19;;;;;;;12.57;6.18;;;11.90;99.90;;;;;;6280155;22;20046;-87
2023/10/25 09:43:50;;;;;;;13.13;6.07;;;12.10;99.90;;;;;;6279327;22;20340;-87
2023/10/25 09:46:21;;;;;;;12.93;5.72;;;12.10;99.90;;;;;;6282635;22;20045;-87
2023/10/25 09:48:55;;;;;;;11.90;5.55;;;11.80;99.90;;;;;;6280502;22;20023;-87
2023/10/25 09:51:44;;;;;;;13.55;6.03;;;11.30;99.90;;;;;;6279210;22;20008;-87
2023/10/25 09:54:11;;;;;;;11.50;5.85;;;11.00;99.90;;;;;;6280269;22;20487;-86
2023/10/25 09:56:37;;;;;;;14.05;6.53;;;12.00;99.90;;;;;;6283209;22;20022;-87
2023/10/25 09:59:06;;;;;;;12.73;6.35;;;12.50;99.90;;;;;;6279478;22;20011;-87
2023/10/25 10:01:32;;;;;;;13.80;6.28;;;12.50;99.90;;;;;;6280284;22;20022;-85
2023/10/25 10:04:10;;;;;;;13.25;6.25;;;11.10;99.90;;;;;;6279910;22;20016;-89
2023/10/25 10:06:54;;;;;;;14.23;6.18;;;11.10;99.90;;;;;;6280594;22;20023;-88
2023/10/25 10:09:50;;;;;;;14.20;6.22;;;11.20;99.90;;;;;;6280267;22;20428;-88
2023/10/25 10:12:16;;;;;;;13.75;5.68;;;11.20;99.90;;;;;;6278328;22;20399;-89
2023/10/25 10:14:41;;;;;;;11.82;5.88;;;12.40;99.90;;;;;;6280056;22;20439;-88
2023/10/25 10:17:15;;;;;;;10.73;5.28;;;12.40;99.90;;;;;;6280403;22;20023;-88
2023/10/25 10:19:42;;;;;;;12.32;5.55;;;11.80;99.90;;;;;;6280118;22;20019;-89
2023/10/25 10:22:13;;;;;;;14.20;5.32;;;12.10;99.90;;;;;;6280682;22;20011;-90
2023/10/25 10:24:52;;;;;;;12.45;5.88;;;11.80;99.90;;;;;;6280271;22;20026;-88
2023/10/25 10:30:45;;;;;;;10.63;5.10;;;12.30;99.90;;;;;;6280398;22;20019;-91
2023/10/25 10:33:12;;;;;;;12.18;5.20;;;11.60;99.90;;;;;;6280108;22;20022;-89
2023/10/25 10:35:48;;;;;;;11.65;5.32;;;12.80;99.90;;;;;;6280458;22;20019;-91
2023/10/25 10:38:14;;;;;;;11.18;4.97;;;12.60;99.90;;;;;;6288566;22;20003;-90
2023/10/25 10:40:39;;;;;;;10.75;4.78;;;12.90;99.90;;;;;;6292022;22;20018;-91
2023/10/25 10:43:07;;;;;;;11.93;4.55;;;12.40;99.90;;;;;;6283455;22;20012;-91
2023/10/25 10:45:34;;;;;;;11.20;4.32;;;13.00;99.90;;;;;;6280612;22;20015;-93
2023/10/25 10:48:25;;;;;;;10.27;4.63;;;13.10;99.90;;;;;;6280662;22;20015;-90
2023/10/25 10:50:51;;;;;;;10.57;4.53;;;11.80;99.90;;;;;;6283068;22;20019;-90
2023/10/25 10:53:17;;;;;;;10.85;4.30;;;11.80;99.90;;;;;;6279067;22;20011;-91
2023/10/25 10:55:44;;;;;;;10.77;4.22;;;11.80;99.90;;;;;;6279703;22;20106;-89
2023/10/25 10:58:10;;;;;;;11.00;4.28;;;12.40;99.90;;;;;;6279844;22;20022;-88
2023/10/25 11:00:36;;;;;;;14.30;5.38;;;13.20;99.90;;;;;;6280324;22;20027;-90
2023/10/25 11:03:03;;;;;;;12.77;4.53;;;13.30;99.90;;;;;;6281525;22;20055;-90
2023/10/25 11:05:35;;;;;;;13.65;4.70;;;11.90;99.90;;;;;;6278756;22;20355;-88
2023/10/25 11:08:00;;;;;;;10.25;4.32;;;12.40;99.90;;;;;;6279236;22;20019;-89
2023/10/25 11:10:32;;;;;;;19.60;4.82;;;11.90;99.90;;;;;;6272306;22;20028;-90
2023/10/25 11:13:11;;;;;;;11.68;5.30;;;11.70;99.90;;;;;;6249499;22;20020;-93
2023/10/25 11:15:42;;;;;;;11.35;4.80;;;11.70;99.90;;;;;;6249163;22;20016;-92
2023/10/25 11:18:17;;;;;;;11.60;4.88;;;12.40;99.90;;;;;;6253686;22;20027;-90
2023/10/25 11:20:42;;;;;;;9.52;4.80;;;11.70;99.90;;;;;;6248456;22;20027;-89
2023/10/25 11:23:11;;;;;;;12.65;4.50;;;11.60;99.90;;;;;;6247933;22;20012;-89
2023/10/25 11:25:38;;;;;;;11.07;4.28;;;11.60;99.90;;;;;;6248665;22;20093;-89
2023/10/25 11:28:10;;;;;;;13.38;4.43;;;12.00;99.90;;;;;;6249214;22;20026;-90
2023/10/25 11:30:38;;;;;;;9.80;4.65;;;11.60;99.90;;;;;;6247839;22;20023;-87
2023/10/25 11:33:09;;;;;;;12.57;4.53;;;12.90;99.90;;;;;;6249007;22;20020;-88
2023/10/25 11:35:42;;;;;;;12.43;4.03;;;11.90;99.90;;;;;;6247416;22;20020;-90
2023/10/25 11:38:15;;;;;;;10.05;4.60;;;12.10;99.90;;;;;;6249576;22;20284;-91
2023/10/25 11:40:45;;;;;;;9.85;4.55;;;12.90;99.90;;;;;;6266327;22;20035;-91
2023/10/25 11:43:12;;;;;;;10.48;4.50;;;12.80;99.90;;;;;;6273171;22;20019;-91
2023/10/25 11:45:39;;;;;;;10.88;4.28;;;11.40;99.90;;;;;;6274696;22;20038;-90
2023/10/25 11:48:06;;;;;;;12.25;4.40;;;12.80;99.90;;;;;;6274430;22;20020;-91
2023/10/25 11:50:32;;;;;;;10.75;4.40;;;11.50;99.90;;;;;;6273637;22;20427;-91
2023/10/25 11:53:01;;;;;;;11.30;4.40;;;13.00;99.90;;;;;;6274677;22;20026;-91
2023/10/25 11:55:27;;;;;;;12.60;4.03;;;11.50;99.90;;;;;;6274069;22;20073;-91
2023/10/25 11:57:53;;;;;;;9.38;4.22;;;11.50;99.90;;;;;;6273394;22;20015;-91
2023/10/25 12:00:25;;;;;;;13.90;4.40;;;12.30;99.90;;;;;;6273922;22;20007;-91
2023/10/25 12:02:51;;;;;;;11.60;4.45;;;11.40;99.90;;;;;;6274519;22;20027;-91
2023/10/25 12:05:17;;;;;;;10.93;4.50;;;11.70;99.90;;;;;;6273472;22;20020;-91
2023/10/25 12:07:43;;;;;;;11.98;4.53;;;12.20;99.90;;;;;;6274600;22;20023;-91
2023/10/25 12:10:09;;;;;;;14.43;4.80;;;12.70;99.90;;;;;;6285675;22;20023;-90
2023/10/25 12:12:35;;;;;;;12.45;4.75;;;11.20;99.90;;;;;;6283250;22;20095;-93
2023/10/25 12:15:01;;;;;;;10.40;4.57;;;11.20;99.90;;;;;;6275376;22;20062;-91
2023/10/25 12:17:26;;;;;;;9.35;4.22;;;12.30;99.90;;;;;;6273012;22;20020;-91
2023/10/25 12:19:52;;;;;;;12.63;4.50;;;11.20;99.90;;;;;;6273025;22;20042;-91
2023/10/25 12:22:19;;;;;;;12.82;4.38;;;11.40;99.90;;;;;;6273913;22;20022;-91
2023/10/25 12:24:48;;;;;;;14.13;4.55;;;12.00;99.90;;;;;;6273599;22;20018;-91
2023/10/25 12:27:14;;;;;;;10.63;4.50;;;12.60;99.90;;;;;;6275320;22;20019;-92
2023/10/25 12:29:40;;;;;;;11.05;4.20;;;12.50;99.90;;;;;;6275240;22;20016;-91
2023/10/25 12:32:06;;;;;;;11.55;4.82;;;11.50;99.90;;;;;;6272799;22;20085;-93
2023/10/25 12:34:41;;;;;;;11.25;4.35;;;11.30;99.90;;;;;;6275447;22;20099;-93
2023/10/25 12:37:06;;;;;;;10.35;4.40;;;11.30;99.90;;;;;;6277139;22;20008;-91
2023/10/25 12:39:34;;;;;;;14.52;4.65;;;11.40;99.90;;;;;;6280273;22;20345;-90
2023/10/25 12:42:00;;;;;;;12.10;4.22;;;11.50;99.90;;;;;;6275886;22;20118;-91
2023/10/25 12:44:26;;;;;;;12.48;4.30;;;12.70;99.90;;;;;;6275967;22;20039;-92